Latest Weather Observations for St Kilda Harbour RMYS

IDV60901

Issued at 4:11 am EST Saturday 30 May 2015 (issued every 10 minutes, with the page automatically refreshed every 10 minutes)

About weather observations | Map of Melbourne area stations | Latest observations for Melbourne area | Other Formats
Station Details ID: 086220 Name: ST KILDA HARBOUR - RMYS Lat: -37.86 Lon: 144.96 Height: 6.4 m
Data from the previous 72 hours. | See also: Recent months for locations in Victoria
Date/Time
EST
Tmp

°C
App
Tmp
°C
Dew
Point
°C
Rel
Hum
%
Delta-T

°C
Wind Press
QNH
hPa
Press
MSL
hPa
Rain
since
9 am
mm
Dir
 
Spd
km/h
Gust
km/h
Spd
kts
Gust
kts
30/04:00am - - - - - NNW 24 30 13 16 - - -
30/03:30am - - - - - NNW 22 32 12 17 - - -
30/03:00am - - - - - NNW 22 30 12 16 - - -
30/02:30am - - - - - NNW 20 30 11 16 - - -
30/02:00am - - - - - NNW 20 32 11 17 - - -
30/01:30am - - - - - NNW 24 35 13 19 - - -
30/01:00am - - - - - NNW 24 32 13 17 - - -
30/12:30am - - - - - NNW 19 28 10 15 - - -
30/12:00am - - - - - NNW 22 30 12 16 - - -
 
Date/Time
EST
Tmp

°C
App
Tmp
°C
Dew
Point
°C
Rel
Hum
%
Delta-T

°C
Wind Press
QNH
hPa
Press
MSL
hPa
Rain
since
9 am
mm
Dir
 
Spd
km/h
Gust
km/h
Spd
kts
Gust
kts
29/11:30pm - - - - - NNW 15 24 8 13 - - -
29/11:00pm - - - - - NNW 19 24 10 13 - - -
29/10:30pm - - - - - NNW 20 28 11 15 - - -
29/10:00pm - - - - - N 22 28 12 15 - - -
29/09:30pm - - - - - NNW 22 30 12 16 - - -
29/09:00pm - - - - - NNW 15 20 8 11 - - -
29/08:30pm - - - - - NNW 20 26 11 14 - - -
29/08:00pm - - - - - NNW 19 26 10 14 - - -
29/07:30pm - - - - - NNW 20 28 11 15 - - -
29/07:00pm - - - - - NNW 22 32 12 17 - - -
29/06:30pm - - - - - NNW 19 24 10 13 - - -
29/06:00pm - - - - - NNW 17 22 9 12 - - -
29/05:30pm - - - - - NW 22 26 12 14 - - -
29/05:00pm - - - - - NW 19 22 10 12 - - -
29/04:30pm - - - - - WNW 24 30 13 16 - - -
29/04:00pm - - - - - WNW 24 32 13 17 - - -
29/03:30pm - - - - - WNW 22 28 12 15 - - -
29/03:00pm - - - - - WNW 20 28 11 15 - - -
29/02:30pm - - - - - WNW 19 26 10 14 - - -
29/02:00pm - - - - - WNW 20 26 11 14 - - -
29/01:30pm - - - - - W 17 20 9 11 - - -
29/01:00pm - - - - - WSW 22 28 12 15 - - -
29/12:30pm - - - - - W 19 24 10 13 - - -
29/12:00pm - - - - - WNW 22 26 12 14 - - -
29/11:30am - - - - - WNW 26 32 14 17 - - -
29/11:00am - - - - - NW 22 30 12 16 - - -
29/10:30am - - - - - WNW 24 32 13 17 - - -
29/10:00am - - - - - NW 22 28 12 15 - - -
29/09:30am - - - - - NW 26 33 14 18 - - -
29/09:00am - - - - - NNW 19 24 10 13 - - -
29/08:30am - - - - - NW 20 26 11 14 - - -
29/08:00am - - - - - NNW 17 20 9 11 - - -
29/07:30am - - - - - NNW 20 26 11 14 - - -
29/07:00am - - - - - NNW 17 20 9 11 - - -
29/06:30am - - - - - NNW 17 20 9 11 - - -
29/06:00am - - - - - NW 17 20 9 11 - - -
29/05:30am - - - - - NNW 13 17 7 9 - - -
29/05:00am - - - - - NNW 15 20 8 11 - - -
29/04:30am - - - - - NW 15 19 8 10 - - -
29/04:00am - - - - - NW 17 20 9 11 - - -
29/03:30am - - - - - WNW 17 24 9 13 - - -
29/03:00am - - - - - WNW 20 24 11 13 - - -
29/02:30am - - - - - WNW 20 24 11 13 - - -
29/02:00am - - - - - WNW 24 30 13 16 - - -
29/01:30am - - - - - W 26 37 14 20 - - -
29/01:00am - - - - - WNW 19 22 10 12 - - -
29/12:30am - - - - - WNW 19 26 10 14 - - -
29/12:00am - - - - - WNW 20 30 11 16 - - -
 
Date/Time
EST
Tmp

°C
App
Tmp
°C
Dew
Point
°C
Rel
Hum
%
Delta-T

°C
Wind Press
QNH
hPa
Press
MSL
hPa
Rain
since
9 am
mm
Dir
 
Spd
km/h
Gust
km/h
Spd
kts
Gust
kts
28/11:30pm - - - - - WNW 32 39 17 21 - - -
28/11:00pm - - - - - WNW 28 33 15 18 - - -
28/10:30pm - - - - - WNW 22 26 12 14 - - -
28/10:00pm - - - - - W 28 35 15 19 - - -
28/09:30pm - - - - - WSW 26 35 14 19 - - -
28/09:00pm - - - - - WSW 41 48 22 26 - - -
28/08:30pm - - - - - WSW 32 37 17 20 - - -
28/08:00pm - - - - - WSW 33 50 18 27 - - -
28/07:30pm - - - - - NNW 28 35 15 19 - - -
28/07:00pm - - - - - N 28 37 15 20 - - -
28/06:30pm - - - - - NNW 26 35 14 19 - - -
28/06:00pm - - - - - NNW 24 35 13 19 - - -
28/05:30pm - - - - - NNW 26 39 14 21 - - -
28/05:00pm - - - - - NNW 30 43 16 23 - - -
28/04:30pm - - - - - N 26 39 14 21 - - -
28/04:00pm - - - - - N 28 44 15 24 - - -
28/03:44pm - - - - - NNW 32 50 17 27 - - -
28/03:30pm - - - - - N 32 46 17 25 - - -
28/03:15pm - - - - - NNW 30 48 16 26 - - -
28/03:00pm - - - - - N 33 46 18 25 - - -
28/02:30pm - - - - - N 32 46 17 25 - - -
28/02:00pm - - - - - N 30 41 16 22 - - -
28/01:30pm - - - - - N 26 37 14 20 - - -
28/01:00pm - - - - - N 24 32 13 17 - - -
28/12:30pm - - - - - N 30 46 16 25 - - -
28/12:27pm - - - - - N 28 46 15 25 - - -
28/12:00pm - - - - - N 24 41 13 22 - - -
28/11:30am - - - - - N 20 30 11 16 - - -
28/11:00am - - - - - N 26 37 14 20 - - -
28/10:34am - - - - - N 28 46 15 25 - - -
28/10:30am - - - - - N 26 37 14 20 - - -
28/10:00am - - - - - N 30 43 16 23 - - -
28/09:30am - - - - - N 32 44 17 24 - - -
28/09:00am - - - - - N 32 46 17 25 - - -
28/08:30am - - - - - N 30 39 16 21 - - -
28/08:00am - - - - - N 24 35 13 19 - - -
28/07:30am - - - - - NNW 26 37 14 20 - - -
28/07:00am - - - - - N 32 43 17 23 - - -
28/06:30am - - - - - N 24 39 13 21 - - -
28/06:00am - - - - - NW 17 24 9 13 - - -
28/05:30am - - - - - NNW 19 28 10 15 - - -
28/05:00am - - - - - N 20 28 11 15 - - -
28/04:30am - - - - - N 28 41 15 22 - - -
28/04:00am - - - - - N 24 35 13 19 - - -
28/03:30am - - - - - N 28 43 15 23 - - -
28/03:00am - - - - - N 24 35 13 19 - - -
28/02:30am - - - - - N 20 28 11 15 - - -
28/02:00am - - - - - N 24 33 13 18 - - -
28/01:30am - - - - - NNW 24 32 13 17 - - -
28/01:00am - - - - - N 24 33 13 18 - - -
28/12:30am - - - - - NNW 26 33 14 18 - - -
28/12:00am - - - - - N 24 33 13 18 - - -
 
Date/Time
EST
Tmp

°C
App
Tmp
°C
Dew
Point
°C
Rel
Hum
%
Delta-T

°C
Wind Press
QNH
hPa
Press
MSL
hPa
Rain
since
9 am
mm
Dir
 
Spd
km/h
Gust
km/h
Spd
kts
Gust
kts
27/11:30pm - - - - - N 24 35 13 19 - - -
27/11:00pm - - - - - N 22 32 12 17 - - -
27/10:30pm - - - - - N 28 41 15 22 - - -
27/10:03pm - - - - - N 28 48 15 26 - - -
27/10:00pm - - - - - N 30 48 16 26 - - -
27/09:30pm - - - - - N 28 39 15 21 - - -
27/09:00pm - - - - - N 30 44 16 24 - - -
27/08:30pm - - - - - N 24 32 13 17 - - -
27/08:00pm - - - - - NNE 19 28 10 15 - - -
27/07:30pm - - - - - N 24 35 13 19 - - -
27/07:00pm - - - - - N 22 33 12 18 - - -
27/06:30pm - - - - - N 24 37 13 20 - - -
27/06:00pm - - - - - N 24 37 13 20 - - -
27/05:30pm - - - - - N 22 35 12 19 - - -
27/05:00pm - - - - - N 26 37 14 20 - - -
27/04:30pm - - - - - N 22 37 12 20 - - -
27/04:00pm - - - - - N 30 43 16 23 - - -
27/03:30pm - - - - - N 28 39 15 21 - - -
27/03:00pm - - - - - N 30 39 16 21 - - -
27/02:30pm - - - - - NNW 35 46 19 25 - - -
27/02:00pm - - - - - N 28 44 15 24 - - -
27/01:30pm - - - - - N 22 32 12 17 - - -
27/01:00pm - - - - - N 22 35 12 19 - - -
27/12:30pm - - - - - NNE 30 43 16 23 - - -
27/12:00pm - - - - - N 30 43 16 23 - - -
27/11:30am - - - - - N 33 50 18 27 - - -
27/11:15am - - - - - N 28 48 15 26 - - -
27/11:00am - - - - - N 26 43 14 23 - - -
27/10:30am - - - - - N 28 44 15 24 - - -
27/10:14am - - - - - N 30 48 16 26 - - -
27/10:00am - - - - - N 26 35 14 19 - - -
27/09:30am - - - - - N 22 30 12 16 - - -
27/09:00am - - - - - N 13 20 7 11 - - -
27/08:30am - - - - - N 19 24 10 13 - - -
27/08:00am - - - - - N 20 32 11 17 - - -
27/07:30am - - - - - N 19 30 10 16 - - -
27/07:00am - - - - - NNE 13 20 7 11 - - -
27/06:30am - - - - - NNE 11 17 6 9 - - -
27/06:00am - - - - - N 15 20 8 11 - - -
27/05:30am - - - - - N 24 35 13 19 - - -
27/05:00am - - - - - NNE 17 26 9 14 - - -
27/04:30am - - - - - N 22 37 12 20 - - -

Latest Capital City Observations: Canberra | Sydney | Melbourne | Brisbane | Adelaide | Perth | Hobart | Darwin

Other Formats:

Comma delimited format used in spreadsheet applications
http://www.bom.gov.au/fwo/IDV60901/IDV60901.95864.axf

JavaScript Object Notation format (JSON) in row-major order
http://www.bom.gov.au/fwo/IDV60901/IDV60901.95864.json